sensor_id;sensor_type;location;lat;lon;timestamp;P1;durP1;ratioP1;P2;durP2;ratioP2
67372;SDS011;54257;54.496;18.412;2022-12-29T00:00:19;9.80;;;7.90;;
67372;SDS011;54257;54.496;18.412;2022-12-29T00:03:06;9.90;;;7.60;;
67372;SDS011;54257;54.496;18.412;2022-12-29T00:05:34;10.40;;;6.80;;
67372;SDS011;54257;54.496;18.412;2022-12-29T00:08:01;9.40;;;7.30;;
67372;SDS011;54257;54.496;18.412;2022-12-29T00:10:28;8.80;;;7.40;;
67372;SDS011;54257;54.496;18.412;2022-12-29T00:12:55;9.90;;;7.30;;
67372;SDS011;54257;54.496;18.412;2022-12-29T00:15:41;7.60;;;6.60;;
67372;SDS011;54257;54.496;18.412;2022-12-29T00:18:08;8.20;;;6.10;;
67372;SDS011;54257;54.496;18.412;2022-12-29T00:20:36;8.10;;;6.40;;
67372;SDS011;54257;54.496;18.412;2022-12-29T00:23:22;7.20;;;6.40;;
67372;SDS011;54257;54.496;18.412;2022-12-29T00:26:11;8.00;;;5.70;;
67372;SDS011;54257;54.496;18.412;2022-12-29T00:29:01;8.60;;;6.20;;
67372;SDS011;54257;54.496;18.412;2022-12-29T00:31:47;6.40;;;5.20;;
67372;SDS011;54257;54.496;18.412;2022-12-29T00:34:37;6.50;;;5.10;;
67372;SDS011;54257;54.496;18.412;2022-12-29T00:37:25;5.10;;;4.60;;
67372;SDS011;54257;54.496;18.412;2022-12-29T00:40:12;7.60;;;5.90;;
67372;SDS011;54257;54.496;18.412;2022-12-29T00:42:58;5.70;;;4.70;;
67372;SDS011;54257;54.496;18.412;2022-12-29T00:45:44;5.00;;;4.20;;
67372;SDS011;54257;54.496;18.412;2022-12-29T00:48:10;6.50;;;4.00;;
67372;SDS011;54257;54.496;18.412;2022-12-29T00:50:37;6.00;;;4.00;;
67372;SDS011;54257;54.496;18.412;2022-12-29T00:53:04;5.20;;;4.20;;
67372;SDS011;54257;54.496;18.412;2022-12-29T00:55:35;5.20;;;3.70;;
67372;SDS011;54257;54.496;18.412;2022-12-29T00:58:04;3.40;;;3.10;;
67372;SDS011;54257;54.496;18.412;2022-12-29T01:00:31;3.70;;;3.30;;
67372;SDS011;54257;54.496;18.412;2022-12-29T01:02:58;3.40;;;2.40;;
67372;SDS011;54257;54.496;18.412;2022-12-29T01:05:25;4.20;;;2.80;;
67372;SDS011;54257;54.496;18.412;2022-12-29T01:07:52;3.30;;;3.00;;
67372;SDS011;54257;54.496;18.412;2022-12-29T01:10:22;3.00;;;2.30;;
67372;SDS011;54257;54.496;18.412;2022-12-29T01:12:49;2.80;;;2.40;;
67372;SDS011;54257;54.496;18.412;2022-12-29T01:15:17;3.30;;;2.60;;
67372;SDS011;54257;54.496;18.412;2022-12-29T01:17:45;2.30;;;2.10;;
67372;SDS011;54257;54.496;18.412;2022-12-29T01:20:12;2.50;;;2.30;;
67372;SDS011;54257;54.496;18.412;2022-12-29T01:22:39;2.40;;;2.10;;
67372;SDS011;54257;54.496;18.412;2022-12-29T01:25:06;2.90;;;2.30;;
67372;SDS011;54257;54.496;18.412;2022-12-29T01:27:34;3.10;;;2.00;;
67372;SDS011;54257;54.496;18.412;2022-12-29T01:30:01;2.10;;;1.80;;
67372;SDS011;54257;54.496;18.412;2022-12-29T01:32:28;2.70;;;2.20;;
67372;SDS011;54257;54.496;18.412;2022-12-29T01:34:55;2.60;;;2.20;;
67372;SDS011;54257;54.496;18.412;2022-12-29T01:37:22;2.20;;;2.00;;
67372;SDS011;54257;54.496;18.412;2022-12-29T01:39:49;3.10;;;2.30;;
67372;SDS011;54257;54.496;18.412;2022-12-29T01:42:16;3.60;;;2.20;;
67372;SDS011;54257;54.496;18.412;2022-12-29T01:49:52;1.80;;;1.70;;
67372;SDS011;54257;54.496;18.412;2022-12-29T01:52:20;2.10;;;1.90;;
67372;SDS011;54257;54.496;18.412;2022-12-29T01:54:51;1.90;;;1.70;;
67372;SDS011;54257;54.496;18.412;2022-12-29T01:57:21;3.50;;;1.90;;
67372;SDS011;54257;54.496;18.412;2022-12-29T01:59:56;1.80;;;1.70;;
67372;SDS011;54257;54.496;18.412;2022-12-29T02:02:30;1.70;;;1.50;;
67372;SDS011;54257;54.496;18.412;2022-12-29T02:05:00;1.70;;;1.60;;
67372;SDS011;54257;54.496;18.412;2022-12-29T02:07:52;3.20;;;1.80;;
67372;SDS011;54257;54.496;18.412;2022-12-29T02:10:20;2.00;;;1.80;;
67372;SDS011;54257;54.496;18.412;2022-12-29T02:12:49;2.50;;;1.70;;
67372;SDS011;54257;54.496;18.412;2022-12-29T02:15:16;2.10;;;1.70;;
67372;SDS011;54257;54.496;18.412;2022-12-29T02:17:56;1.60;;;1.50;;
67372;SDS011;54257;54.496;18.412;2022-12-29T02:20:42;1.50;;;1.40;;
67372;SDS011;54257;54.496;18.412;2022-12-29T02:26:21;1.90;;;1.50;;
67372;SDS011;54257;54.496;18.412;2022-12-29T02:37:00;1.50;;;1.40;;
67372;SDS011;54257;54.496;18.412;2022-12-29T02:39:50;2.80;;;1.90;;
67372;SDS011;54257;54.496;18.412;2022-12-29T02:42:24;2.80;;;1.70;;
67372;SDS011;54257;54.496;18.412;2022-12-29T02:50:42;1.40;;;1.30;;
67372;SDS011;54257;54.496;18.412;2022-12-29T02:53:15;1.90;;;1.70;;
67372;SDS011;54257;54.496;18.412;2022-12-29T02:56:06;1.60;;;1.50;;
67372;SDS011;54257;54.496;18.412;2022-12-29T02:58:33;1.70;;;1.60;;
67372;SDS011;54257;54.496;18.412;2022-12-29T03:01:06;1.80;;;1.70;;
67372;SDS011;54257;54.496;18.412;2022-12-29T03:09:19;1.80;;;1.60;;
67372;SDS011;54257;54.496;18.412;2022-12-29T03:11:58;1.30;;;1.20;;
67372;SDS011;54257;54.496;18.412;2022-12-29T03:14:58;1.50;;;1.40;;
67372;SDS011;54257;54.496;18.412;2022-12-29T03:17:57;2.80;;;1.80;;
67372;SDS011;54257;54.496;18.412;2022-12-29T03:20:50;2.00;;;1.70;;
67372;SDS011;54257;54.496;18.412;2022-12-29T03:23:21;1.50;;;1.40;;
67372;SDS011;54257;54.496;18.412;2022-12-29T03:25:51;1.90;;;1.70;;
67372;SDS011;54257;54.496;18.412;2022-12-29T03:28:27;1.70;;;1.60;;
67372;SDS011;54257;54.496;18.412;2022-12-29T03:31:01;2.10;;;2.00;;
67372;SDS011;54257;54.496;18.412;2022-12-29T03:33:31;2.30;;;2.10;;
67372;SDS011;54257;54.496;18.412;2022-12-29T03:35:59;2.50;;;2.30;;
67372;SDS011;54257;54.496;18.412;2022-12-29T03:41:38;3.30;;;2.50;;
67372;SDS011;54257;54.496;18.412;2022-12-29T03:44:09;4.20;;;3.00;;
67372;SDS011;54257;54.496;18.412;2022-12-29T03:46:36;2.90;;;2.60;;
67372;SDS011;54257;54.496;18.412;2022-12-29T03:49:04;3.40;;;3.10;;
67372;SDS011;54257;54.496;18.412;2022-12-29T03:51:31;4.40;;;3.20;;
67372;SDS011;54257;54.496;18.412;2022-12-29T03:53:58;3.40;;;3.10;;
67372;SDS011;54257;54.496;18.412;2022-12-29T03:56:25;4.10;;;3.70;;
67372;SDS011;54257;54.496;18.412;2022-12-29T03:58:55;4.30;;;3.90;;
67372;SDS011;54257;54.496;18.412;2022-12-29T04:01:22;4.40;;;4.00;;
67372;SDS011;54257;54.496;18.412;2022-12-29T04:03:49;4.90;;;4.40;;
67372;SDS011;54257;54.496;18.412;2022-12-29T04:06:16;4.60;;;4.10;;
67372;SDS011;54257;54.496;18.412;2022-12-29T04:08:43;4.30;;;3.90;;
67372;SDS011;54257;54.496;18.412;2022-12-29T04:11:10;5.30;;;4.80;;
67372;SDS011;54257;54.496;18.412;2022-12-29T04:13:36;4.70;;;4.30;;
67372;SDS011;54257;54.496;18.412;2022-12-29T04:16:07;6.00;;;4.90;;
67372;SDS011;54257;54.496;18.412;2022-12-29T04:18:35;5.20;;;4.70;;
67372;SDS011;54257;54.496;18.412;2022-12-29T04:21:02;5.90;;;5.30;;
67372;SDS011;54257;54.496;18.412;2022-12-29T04:23:31;5.90;;;5.30;;
67372;SDS011;54257;54.496;18.412;2022-12-29T04:25:59;6.50;;;5.20;;
67372;SDS011;54257;54.496;18.412;2022-12-29T04:28:28;7.40;;;6.30;;
67372;SDS011;54257;54.496;18.412;2022-12-29T04:30:55;7.10;;;6.00;;
67372;SDS011;54257;54.496;18.412;2022-12-29T04:33:22;7.00;;;6.20;;
67372;SDS011;54257;54.496;18.412;2022-12-29T04:35:49;6.10;;;5.50;;
67372;SDS011;54257;54.496;18.412;2022-12-29T04:38:19;7.20;;;6.50;;
67372;SDS011;54257;54.496;18.412;2022-12-29T04:40:47;6.70;;;6.00;;
67372;SDS011;54257;54.496;18.412;2022-12-29T04:43:14;6.80;;;6.00;;
67372;SDS011;54257;54.496;18.412;2022-12-29T04:45:45;7.50;;;6.10;;
67372;SDS011;54257;54.496;18.412;2022-12-29T04:48:13;7.40;;;5.80;;
67372;SDS011;54257;54.496;18.412;2022-12-29T04:50:40;8.50;;;6.90;;
67372;SDS011;54257;54.496;18.412;2022-12-29T04:53:08;8.00;;;7.20;;
67372;SDS011;54257;54.496;18.412;2022-12-29T04:55:35;9.10;;;7.30;;
67372;SDS011;54257;54.496;18.412;2022-12-29T04:58:02;9.60;;;7.40;;
67372;SDS011;54257;54.496;18.412;2022-12-29T05:00:29;9.80;;;8.10;;
67372;SDS011;54257;54.496;18.412;2022-12-29T05:02:56;12.80;;;7.70;;
67372;SDS011;54257;54.496;18.412;2022-12-29T05:05:23;9.00;;;7.90;;
67372;SDS011;54257;54.496;18.412;2022-12-29T05:07:50;10.40;;;8.60;;
67372;SDS011;54257;54.496;18.412;2022-12-29T05:10:17;10.10;;;8.60;;
67372;SDS011;54257;54.496;18.412;2022-12-29T05:12:45;10.40;;;7.80;;
67372;SDS011;54257;54.496;18.412;2022-12-29T05:15:12;9.10;;;7.90;;
67372;SDS011;54257;54.496;18.412;2022-12-29T05:17:39;11.90;;;8.90;;
67372;SDS011;54257;54.496;18.412;2022-12-29T05:20:06;11.50;;;9.00;;
67372;SDS011;54257;54.496;18.412;2022-12-29T05:22:34;11.30;;;9.60;;
67372;SDS011;54257;54.496;18.412;2022-12-29T05:25:01;11.20;;;9.10;;
67372;SDS011;54257;54.496;18.412;2022-12-29T05:27:28;9.80;;;8.80;;
67372;SDS011;54257;54.496;18.412;2022-12-29T05:29:55;10.40;;;9.00;;
67372;SDS011;54257;54.496;18.412;2022-12-29T05:32:22;12.40;;;9.20;;
67372;SDS011;54257;54.496;18.412;2022-12-29T05:34:49;11.00;;;9.50;;
67372;SDS011;54257;54.496;18.412;2022-12-29T05:37:16;13.40;;;10.10;;
67372;SDS011;54257;54.496;18.412;2022-12-29T05:39:43;13.10;;;9.80;;
67372;SDS011;54257;54.496;18.412;2022-12-29T05:42:10;13.20;;;9.30;;
67372;SDS011;54257;54.496;18.412;2022-12-29T05:44:37;11.10;;;9.60;;
67372;SDS011;54257;54.496;18.412;2022-12-29T05:47:04;12.50;;;9.30;;
67372;SDS011;54257;54.496;18.412;2022-12-29T05:49:31;11.40;;;9.10;;
67372;SDS011;54257;54.496;18.412;2022-12-29T05:51:58;11.10;;;9.50;;
67372;SDS011;54257;54.496;18.412;2022-12-29T05:54:25;12.10;;;9.40;;
67372;SDS011;54257;54.496;18.412;2022-12-29T05:56:52;14.50;;;9.70;;
67372;SDS011;54257;54.496;18.412;2022-12-29T05:59:19;12.30;;;9.70;;
67372;SDS011;54257;54.496;18.412;2022-12-29T06:01:46;12.00;;;9.90;;
67372;SDS011;54257;54.496;18.412;2022-12-29T06:04:13;11.30;;;9.60;;
67372;SDS011;54257;54.496;18.412;2022-12-29T06:06:40;13.90;;;9.30;;
67372;SDS011;54257;54.496;18.412;2022-12-29T06:09:09;11.70;;;9.60;;
67372;SDS011;54257;54.496;18.412;2022-12-29T06:11:37;12.90;;;9.90;;
67372;SDS011;54257;54.496;18.412;2022-12-29T06:14:04;13.40;;;9.30;;
67372;SDS011;54257;54.496;18.412;2022-12-29T06:16:31;11.20;;;8.90;;
67372;SDS011;54257;54.496;18.412;2022-12-29T06:18:58;12.10;;;9.30;;
67372;SDS011;54257;54.496;18.412;2022-12-29T06:21:25;11.20;;;8.70;;
67372;SDS011;54257;54.496;18.412;2022-12-29T06:23:52;10.70;;;9.40;;
67372;SDS011;54257;54.496;18.412;2022-12-29T06:26:20;12.40;;;9.10;;
67372;SDS011;54257;54.496;18.412;2022-12-29T06:28:47;13.00;;;9.50;;
67372;SDS011;54257;54.496;18.412;2022-12-29T06:31:14;12.10;;;9.70;;
67372;SDS011;54257;54.496;18.412;2022-12-29T06:33:41;12.50;;;10.20;;
67372;SDS011;54257;54.496;18.412;2022-12-29T06:36:08;13.00;;;9.90;;
67372;SDS011;54257;54.496;18.412;2022-12-29T06:38:35;9.40;;;8.40;;
67372;SDS011;54257;54.496;18.412;2022-12-29T06:41:02;11.60;;;9.20;;
67372;SDS011;54257;54.496;18.412;2022-12-29T06:43:38;10.50;;;9.30;;
67372;SDS011;54257;54.496;18.412;2022-12-29T06:46:06;12.20;;;9.80;;
67372;SDS011;54257;54.496;18.412;2022-12-29T06:48:32;12.20;;;9.50;;
67372;SDS011;54257;54.496;18.412;2022-12-29T06:51:00;12.00;;;8.60;;
67372;SDS011;54257;54.496;18.412;2022-12-29T06:53:27;10.30;;;8.50;;
67372;SDS011;54257;54.496;18.412;2022-12-29T06:55:54;11.70;;;8.40;;
67372;SDS011;54257;54.496;18.412;2022-12-29T06:58:21;10.80;;;8.90;;
67372;SDS011;54257;54.496;18.412;2022-12-29T07:00:48;12.90;;;9.20;;
67372;SDS011;54257;54.496;18.412;2022-12-29T07:03:15;10.00;;;8.60;;
67372;SDS011;54257;54.496;18.412;2022-12-29T07:05:42;12.40;;;8.70;;
67372;SDS011;54257;54.496;18.412;2022-12-29T07:08:09;11.30;;;8.80;;
67372;SDS011;54257;54.496;18.412;2022-12-29T07:10:36;11.40;;;9.70;;
67372;SDS011;54257;54.496;18.412;2022-12-29T07:13:03;11.60;;;9.40;;
67372;SDS011;54257;54.496;18.412;2022-12-29T07:15:30;12.20;;;8.90;;
67372;SDS011;54257;54.496;18.412;2022-12-29T07:17:57;11.50;;;9.20;;
67372;SDS011;54257;54.496;18.412;2022-12-29T07:20:24;10.60;;;9.20;;
67372;SDS011;54257;54.496;18.412;2022-12-29T07:22:52;13.90;;;10.50;;
67372;SDS011;54257;54.496;18.412;2022-12-29T07:25:19;12.50;;;9.80;;
67372;SDS011;54257;54.496;18.412;2022-12-29T07:27:46;12.50;;;9.70;;
67372;SDS011;54257;54.496;18.412;2022-12-29T07:30:13;13.20;;;10.20;;
67372;SDS011;54257;54.496;18.412;2022-12-29T07:32:40;10.90;;;8.60;;
67372;SDS011;54257;54.496;18.412;2022-12-29T07:35:07;11.40;;;8.60;;
67372;SDS011;54257;54.496;18.412;2022-12-29T07:37:35;9.30;;;8.30;;
67372;SDS011;54257;54.496;18.412;2022-12-29T07:40:03;11.60;;;8.60;;
67372;SDS011;54257;54.496;18.412;2022-12-29T07:42:30;12.40;;;9.10;;
67372;SDS011;54257;54.496;18.412;2022-12-29T07:44:58;10.80;;;8.50;;
67372;SDS011;54257;54.496;18.412;2022-12-29T07:47:25;12.20;;;9.20;;
67372;SDS011;54257;54.496;18.412;2022-12-29T07:49:53;11.30;;;8.20;;
67372;SDS011;54257;54.496;18.412;2022-12-29T07:52:20;11.90;;;8.00;;
67372;SDS011;54257;54.496;18.412;2022-12-29T07:54:47;12.60;;;9.00;;
67372;SDS011;54257;54.496;18.412;2022-12-29T07:57:14;11.50;;;9.20;;
67372;SDS011;54257;54.496;18.412;2022-12-29T07:59:41;11.20;;;8.70;;
67372;SDS011;54257;54.496;18.412;2022-12-29T08:02:09;9.80;;;8.30;;
67372;SDS011;54257;54.496;18.412;2022-12-29T08:04:38;11.50;;;8.20;;
67372;SDS011;54257;54.496;18.412;2022-12-29T08:07:05;13.90;;;9.00;;
67372;SDS011;54257;54.496;18.412;2022-12-29T08:09:32;13.90;;;9.60;;
67372;SDS011;54257;54.496;18.412;2022-12-29T08:11:59;12.70;;;9.80;;
67372;SDS011;54257;54.496;18.412;2022-12-29T08:14:26;10.70;;;8.30;;
67372;SDS011;54257;54.496;18.412;2022-12-29T08:16:53;11.70;;;8.80;;
67372;SDS011;54257;54.496;18.412;2022-12-29T08:19:20;11.60;;;9.60;;
67372;SDS011;54257;54.496;18.412;2022-12-29T08:21:47;12.90;;;8.50;;
67372;SDS011;54257;54.496;18.412;2022-12-29T08:24:15;13.90;;;9.10;;
67372;SDS011;54257;54.496;18.412;2022-12-29T08:26:42;10.90;;;8.40;;
67372;SDS011;54257;54.496;18.412;2022-12-29T08:29:09;11.10;;;8.00;;
67372;SDS011;54257;54.496;18.412;2022-12-29T08:31:36;10.40;;;8.60;;
67372;SDS011;54257;54.496;18.412;2022-12-29T08:34:03;10.10;;;7.50;;
67372;SDS011;54257;54.496;18.412;2022-12-29T08:36:30;9.90;;;7.80;;
67372;SDS011;54257;54.496;18.412;2022-12-29T08:38:57;10.80;;;8.10;;
67372;SDS011;54257;54.496;18.412;2022-12-29T08:41:24;10.50;;;8.10;;
67372;SDS011;54257;54.496;18.412;2022-12-29T08:43:51;9.50;;;7.70;;
67372;SDS011;54257;54.496;18.412;2022-12-29T08:46:18;11.20;;;8.90;;
67372;SDS011;54257;54.496;18.412;2022-12-29T08:48:45;9.00;;;7.70;;
67372;SDS011;54257;54.496;18.412;2022-12-29T08:51:13;11.00;;;8.50;;
67372;SDS011;54257;54.496;18.412;2022-12-29T08:53:40;9.00;;;7.60;;
67372;SDS011;54257;54.496;18.412;2022-12-29T08:56:08;9.30;;;7.90;;
67372;SDS011;54257;54.496;18.412;2022-12-29T08:58:36;11.40;;;9.10;;
67372;SDS011;54257;54.496;18.412;2022-12-29T09:01:04;9.70;;;7.30;;
67372;SDS011;54257;54.496;18.412;2022-12-29T09:03:31;11.20;;;8.20;;
67372;SDS011;54257;54.496;18.412;2022-12-29T09:05:58;10.50;;;8.10;;
67372;SDS011;54257;54.496;18.412;2022-12-29T09:08:25;9.50;;;8.20;;
67372;SDS011;54257;54.496;18.412;2022-12-29T09:10:53;9.00;;;8.10;;
67372;SDS011;54257;54.496;18.412;2022-12-29T09:13:20;10.10;;;8.40;;
67372;SDS011;54257;54.496;18.412;2022-12-29T09:15:47;9.60;;;7.90;;
67372;SDS011;54257;54.496;18.412;2022-12-29T09:18:14;9.90;;;8.00;;
67372;SDS011;54257;54.496;18.412;2022-12-29T09:20:41;9.90;;;8.30;;
67372;SDS011;54257;54.496;18.412;2022-12-29T09:23:09;11.00;;;8.50;;
67372;SDS011;54257;54.496;18.412;2022-12-29T09:25:36;9.90;;;8.10;;
67372;SDS011;54257;54.496;18.412;2022-12-29T09:28:03;9.70;;;8.40;;
67372;SDS011;54257;54.496;18.412;2022-12-29T09:30:34;11.00;;;8.20;;
67372;SDS011;54257;54.496;18.412;2022-12-29T09:33:01;9.40;;;8.40;;
67372;SDS011;54257;54.496;18.412;2022-12-29T09:35:28;9.90;;;8.10;;
67372;SDS011;54257;54.496;18.412;2022-12-29T09:37:55;10.30;;;8.40;;
67372;SDS011;54257;54.496;18.412;2022-12-29T09:40:32;10.10;;;8.10;;
67372;SDS011;54257;54.496;18.412;2022-12-29T09:48:45;11.30;;;8.70;;
67372;SDS011;54257;54.496;18.412;2022-12-29T09:51:21;8.90;;;8.00;;
67372;SDS011;54257;54.496;18.412;2022-12-29T09:56:40;9.80;;;8.60;;
67372;SDS011;54257;54.496;18.412;2022-12-29T09:59:12;9.60;;;7.80;;
67372;SDS011;54257;54.496;18.412;2022-12-29T10:01:46;11.40;;;9.10;;
67372;SDS011;54257;54.496;18.412;2022-12-29T10:04:25;10.90;;;8.80;;
67372;SDS011;54257;54.496;18.412;2022-12-29T10:06:56;10.70;;;8.70;;
67372;SDS011;54257;54.496;18.412;2022-12-29T10:15:28;8.80;;;7.90;;
67372;SDS011;54257;54.496;18.412;2022-12-29T10:24:02;8.70;;;7.80;;
67372;SDS011;54257;54.496;18.412;2022-12-29T10:26:37;11.60;;;8.20;;
67372;SDS011;54257;54.496;18.412;2022-12-29T10:31:56;9.80;;;8.00;;
67372;SDS011;54257;54.496;18.412;2022-12-29T10:34:27;9.40;;;7.50;;
67372;SDS011;54257;54.496;18.412;2022-12-29T10:37:53;8.90;;;6.60;;
67372;SDS011;54257;54.496;18.412;2022-12-29T10:39:59;10.30;;;6.50;;
67372;SDS011;54257;54.496;18.412;2022-12-29T10:42:43;7.10;;;6.00;;
67372;SDS011;54257;54.496;18.412;2022-12-29T10:45:15;8.10;;;6.90;;
67372;SDS011;54257;54.496;18.412;2022-12-29T10:47:57;9.90;;;6.20;;
67372;SDS011;54257;54.496;18.412;2022-12-29T10:50:29;7.00;;;5.80;;
67372;SDS011;54257;54.496;18.412;2022-12-29T10:53:00;10.00;;;6.80;;
67372;SDS011;54257;54.496;18.412;2022-12-29T10:55:37;8.20;;;6.80;;
67372;SDS011;54257;54.496;18.412;2022-12-29T10:58:11;8.10;;;6.20;;
67372;SDS011;54257;54.496;18.412;2022-12-29T11:00:40;8.30;;;6.70;;
67372;SDS011;54257;54.496;18.412;2022-12-29T11:03:19;7.30;;;6.50;;
67372;SDS011;54257;54.496;18.412;2022-12-29T11:08:33;7.10;;;6.10;;
67372;SDS011;54257;54.496;18.412;2022-12-29T11:11:06;9.20;;;5.90;;
67372;SDS011;54257;54.496;18.412;2022-12-29T11:13:49;7.60;;;6.00;;
67372;SDS011;54257;54.496;18.412;2022-12-29T11:16:33;10.30;;;6.70;;
67372;SDS011;54257;54.496;18.412;2022-12-29T11:19:01;8.70;;;7.00;;
67372;SDS011;54257;54.496;18.412;2022-12-29T11:21:36;8.90;;;6.30;;
67372;SDS011;54257;54.496;18.412;2022-12-29T11:24:18;8.50;;;5.70;;
67372;SDS011;54257;54.496;18.412;2022-12-29T11:26:49;6.50;;;5.70;;
67372;SDS011;54257;54.496;18.412;2022-12-29T11:29:21;7.70;;;5.70;;
67372;SDS011;54257;54.496;18.412;2022-12-29T11:31:55;7.00;;;6.20;;
67372;SDS011;54257;54.496;18.412;2022-12-29T11:37:02;6.80;;;5.80;;
67372;SDS011;54257;54.496;18.412;2022-12-29T11:40:17;6.50;;;5.90;;
67372;SDS011;54257;54.496;18.412;2022-12-29T11:42:37;6.90;;;5.90;;
67372;SDS011;54257;54.496;18.412;2022-12-29T11:45:18;10.30;;;5.40;;
67372;SDS011;54257;54.496;18.412;2022-12-29T11:47:48;7.60;;;6.20;;
67372;SDS011;54257;54.496;18.412;2022-12-29T11:50:29;6.40;;;5.80;;
67372;SDS011;54257;54.496;18.412;2022-12-29T11:52:59;8.70;;;6.00;;
67372;SDS011;54257;54.496;18.412;2022-12-29T11:55:30;6.80;;;6.00;;
67372;SDS011;54257;54.496;18.412;2022-12-29T11:57:58;8.60;;;6.30;;
67372;SDS011;54257;54.496;18.412;2022-12-29T12:00:28;6.80;;;5.80;;
67372;SDS011;54257;54.496;18.412;2022-12-29T12:05:32;9.50;;;5.60;;
67372;SDS011;54257;54.496;18.412;2022-12-29T12:08:15;8.80;;;6.20;;
67372;SDS011;54257;54.496;18.412;2022-12-29T12:13:40;7.30;;;5.90;;
67372;SDS011;54257;54.496;18.412;2022-12-29T12:16:19;6.60;;;5.50;;
67372;SDS011;54257;54.496;18.412;2022-12-29T12:19:01;6.50;;;5.70;;
67372;SDS011;54257;54.496;18.412;2022-12-29T12:21:40;7.40;;;5.80;;
67372;SDS011;54257;54.496;18.412;2022-12-29T12:29:43;9.00;;;6.90;;
67372;SDS011;54257;54.496;18.412;2022-12-29T12:32:23;8.00;;;7.10;;
67372;SDS011;54257;54.496;18.412;2022-12-29T12:34:54;8.90;;;7.80;;
67372;SDS011;54257;54.496;18.412;2022-12-29T12:41:14;7.10;;;6.40;;
67372;SDS011;54257;54.496;18.412;2022-12-29T12:49:03;7.90;;;6.10;;
67372;SDS011;54257;54.496;18.412;2022-12-29T12:54:32;8.80;;;5.80;;
67372;SDS011;54257;54.496;18.412;2022-12-29T13:06:07;9.60;;;6.70;;
67372;SDS011;54257;54.496;18.412;2022-12-29T13:08:27;7.10;;;6.00;;
67372;SDS011;54257;54.496;18.412;2022-12-29T13:11:25;9.90;;;6.40;;
67372;SDS011;54257;54.496;18.412;2022-12-29T13:14:01;10.40;;;6.30;;
67372;SDS011;54257;54.496;18.412;2022-12-29T13:19:16;8.30;;;6.50;;
67372;SDS011;54257;54.496;18.412;2022-12-29T13:30:09;7.20;;;5.70;;
67372;SDS011;54257;54.496;18.412;2022-12-29T13:35:58;8.10;;;6.60;;
67372;SDS011;54257;54.496;18.412;2022-12-29T13:38:39;8.10;;;6.00;;
67372;SDS011;54257;54.496;18.412;2022-12-29T13:41:12;8.30;;;6.60;;
67372;SDS011;54257;54.496;18.412;2022-12-29T13:43:45;9.10;;;6.60;;
67372;SDS011;54257;54.496;18.412;2022-12-29T13:46:24;9.10;;;6.90;;
67372;SDS011;54257;54.496;18.412;2022-12-29T13:48:58;7.60;;;6.30;;
67372;SDS011;54257;54.496;18.412;2022-12-29T13:51:57;8.00;;;6.30;;
67372;SDS011;54257;54.496;18.412;2022-12-29T13:54:56;7.90;;;5.90;;
67372;SDS011;54257;54.496;18.412;2022-12-29T14:00:18;8.40;;;6.20;;
67372;SDS011;54257;54.496;18.412;2022-12-29T14:05:39;9.30;;;6.20;;
67372;SDS011;54257;54.496;18.412;2022-12-29T14:08:11;8.50;;;6.00;;
67372;SDS011;54257;54.496;18.412;2022-12-29T14:13:24;7.30;;;6.50;;
67372;SDS011;54257;54.496;18.412;2022-12-29T14:16:02;9.40;;;6.50;;
67372;SDS011;54257;54.496;18.412;2022-12-29T14:18:33;6.90;;;6.10;;
67372;SDS011;54257;54.496;18.412;2022-12-29T14:23:41;9.40;;;6.40;;
67372;SDS011;54257;54.496;18.412;2022-12-29T14:29:42;8.10;;;6.10;;
67372;SDS011;54257;54.496;18.412;2022-12-29T14:31:56;8.30;;;5.70;;
67372;SDS011;54257;54.496;18.412;2022-12-29T14:34:30;9.30;;;6.50;;
67372;SDS011;54257;54.496;18.412;2022-12-29T14:37:17;9.30;;;6.30;;
67372;SDS011;54257;54.496;18.412;2022-12-29T14:42:31;8.30;;;5.90;;
67372;SDS011;54257;54.496;18.412;2022-12-29T14:45:05;9.60;;;6.90;;
67372;SDS011;54257;54.496;18.412;2022-12-29T14:47:44;8.90;;;6.30;;
67372;SDS011;54257;54.496;18.412;2022-12-29T14:50:23;8.10;;;5.70;;
67372;SDS011;54257;54.496;18.412;2022-12-29T14:52:59;8.10;;;6.10;;
67372;SDS011;54257;54.496;18.412;2022-12-29T14:58:28;8.80;;;6.00;;
67372;SDS011;54257;54.496;18.412;2022-12-29T15:01:01;9.20;;;7.30;;
67372;SDS011;54257;54.496;18.412;2022-12-29T15:05:56;9.40;;;6.50;;
67372;SDS011;54257;54.496;18.412;2022-12-29T15:08:33;8.90;;;5.90;;
67372;SDS011;54257;54.496;18.412;2022-12-29T15:11:31;12.50;;;7.20;;
67372;SDS011;54257;54.496;18.412;2022-12-29T15:17:01;9.70;;;6.90;;
67372;SDS011;54257;54.496;18.412;2022-12-29T15:19:57;9.10;;;6.80;;
67372;SDS011;54257;54.496;18.412;2022-12-29T15:23:02;10.20;;;7.80;;
67372;SDS011;54257;54.496;18.412;2022-12-29T15:25:35;11.60;;;7.60;;
67372;SDS011;54257;54.496;18.412;2022-12-29T15:28:04;8.70;;;6.80;;
67372;SDS011;54257;54.496;18.412;2022-12-29T15:30:33;10.00;;;6.60;;
67372;SDS011;54257;54.496;18.412;2022-12-29T15:33:00;11.30;;;6.70;;
67372;SDS011;54257;54.496;18.412;2022-12-29T15:35:31;10.90;;;6.10;;
67372;SDS011;54257;54.496;18.412;2022-12-29T15:38:16;10.80;;;8.00;;
67372;SDS011;54257;54.496;18.412;2022-12-29T15:40:53;11.00;;;7.20;;
67372;SDS011;54257;54.496;18.412;2022-12-29T15:46:13;11.40;;;7.00;;
67372;SDS011;54257;54.496;18.412;2022-12-29T15:48:41;7.40;;;5.60;;
67372;SDS011;54257;54.496;18.412;2022-12-29T15:51:18;7.00;;;4.70;;
67372;SDS011;54257;54.496;18.412;2022-12-29T15:53:57;13.70;;;8.90;;
67372;SDS011;54257;54.496;18.412;2022-12-29T15:56:24;9.60;;;6.60;;
67372;SDS011;54257;54.496;18.412;2022-12-29T15:58:59;9.50;;;6.00;;
67372;SDS011;54257;54.496;18.412;2022-12-29T16:01:31;9.90;;;6.30;;
67372;SDS011;54257;54.496;18.412;2022-12-29T16:04:04;9.60;;;5.80;;
67372;SDS011;54257;54.496;18.412;2022-12-29T16:09:10;8.70;;;4.50;;
67372;SDS011;54257;54.496;18.412;2022-12-29T16:11:42;6.70;;;5.10;;
67372;SDS011;54257;54.496;18.412;2022-12-29T16:14:15;9.30;;;5.80;;
67372;SDS011;54257;54.496;18.412;2022-12-29T16:16:45;7.00;;;5.00;;
67372;SDS011;54257;54.496;18.412;2022-12-29T16:22:00;9.60;;;5.40;;
67372;SDS011;54257;54.496;18.412;2022-12-29T16:24:30;7.20;;;4.80;;
67372;SDS011;54257;54.496;18.412;2022-12-29T16:27:02;7.60;;;4.90;;
67372;SDS011;54257;54.496;18.412;2022-12-29T16:29:40;10.50;;;5.30;;
67372;SDS011;54257;54.496;18.412;2022-12-29T16:32:24;8.50;;;5.60;;
67372;SDS011;54257;54.496;18.412;2022-12-29T16:35:11;7.80;;;4.90;;
67372;SDS011;54257;54.496;18.412;2022-12-29T16:37:38;14.90;;;6.10;;
67372;SDS011;54257;54.496;18.412;2022-12-29T16:43:01;6.90;;;4.80;;
67372;SDS011;54257;54.496;18.412;2022-12-29T16:50:34;8.00;;;5.30;;
67372;SDS011;54257;54.496;18.412;2022-12-29T16:53:03;6.20;;;5.40;;
67372;SDS011;54257;54.496;18.412;2022-12-29T16:55:31;5.80;;;4.70;;
67372;SDS011;54257;54.496;18.412;2022-12-29T16:57:58;6.60;;;4.70;;
67372;SDS011;54257;54.496;18.412;2022-12-29T17:00:27;9.10;;;5.30;;
67372;SDS011;54257;54.496;18.412;2022-12-29T17:02:58;8.00;;;4.50;;
67372;SDS011;54257;54.496;18.412;2022-12-29T17:05:27;7.00;;;4.50;;
67372;SDS011;54257;54.496;18.412;2022-12-29T17:07:57;6.50;;;4.10;;
67372;SDS011;54257;54.496;18.412;2022-12-29T17:10:27;5.00;;;3.70;;
67372;SDS011;54257;54.496;18.412;2022-12-29T17:13:13;5.30;;;3.30;;
67372;SDS011;54257;54.496;18.412;2022-12-29T17:15:41;5.90;;;3.40;;
67372;SDS011;54257;54.496;18.412;2022-12-29T17:18:08;3.90;;;2.90;;
67372;SDS011;54257;54.496;18.412;2022-12-29T17:20:36;4.70;;;3.20;;
67372;SDS011;54257;54.496;18.412;2022-12-29T17:23:04;4.80;;;4.40;;